createdAt,value
2023-04-30T00:00:40.705Z,9.711802
2023-04-30T00:01:39.187Z,9.711806
2023-04-30T00:02:39.216Z,9.712067
2023-04-30T00:03:39.192Z,9.711926
2023-04-30T00:04:39.140Z,9.711617
2023-04-30T00:05:39.110Z,9.711730
2023-04-30T00:06:39.122Z,9.711800
2023-04-30T00:07:39.102Z,9.711787
2023-04-30T00:08:39.094Z,9.711839
2023-04-30T00:09:39.145Z,9.711877
2023-04-30T00:10:39.054Z,9.711558
2023-04-30T00:11:39.092Z,9.711535
2023-04-30T00:12:39.042Z,9.711513
2023-04-30T00:13:39.048Z,9.711483
2023-04-30T00:14:39.031Z,9.711337
2023-04-30T00:15:39.062Z,9.711349
2023-04-30T00:16:39.110Z,9.711535
2023-04-30T00:17:39.068Z,9.711607
2023-04-30T00:18:38.997Z,9.711560
2023-04-30T00:19:38.992Z,9.711545
2023-04-30T00:20:40.779Z,9.711495
2023-04-30T00:27:29.285Z,9.711446
2023-04-30T00:28:29.292Z,9.711375
2023-04-30T00:29:29.294Z,9.711499
2023-04-30T00:30:29.275Z,9.711480
2023-04-30T00:31:29.377Z,9.711381
2023-04-30T00:32:29.270Z,9.711496
2023-04-30T00:33:29.245Z,9.711490
2023-04-30T00:34:29.240Z,9.711418
2023-04-30T00:35:29.213Z,9.711500
2023-04-30T00:36:29.262Z,9.711466
2023-04-30T00:37:29.222Z,9.711346
2023-04-30T00:38:29.195Z,9.711299
2023-04-30T00:39:29.176Z,9.711359
2023-04-30T00:40:29.179Z,9.711452
2023-04-30T00:41:29.168Z,9.711498
2023-04-30T00:42:29.167Z,9.711404
2023-04-30T00:43:29.206Z,9.711321
2023-04-30T00:44:29.149Z,9.711420
2023-04-30T00:45:29.133Z,9.711429
2023-04-30T00:46:29.265Z,9.711716
2023-04-30T00:47:29.187Z,9.711681
2023-04-30T00:48:29.124Z,9.711854
2023-04-30T00:49:29.120Z,9.711958
2023-04-30T00:50:29.101Z,9.711491
2023-04-30T00:51:29.110Z,9.711346
2023-04-30T00:52:29.090Z,9.711317
2023-04-30T00:53:29.112Z,9.711453
2023-04-30T00:54:29.072Z,9.711368
2023-04-30T00:55:29.073Z,9.711376
2023-04-30T00:56:29.053Z,9.711513
2023-04-30T00:57:29.042Z,9.711253
2023-04-30T00:58:29.064Z,9.711604
2023-04-30T00:59:29.033Z,9.711660
2023-04-30T01:00:29.023Z,9.711612
2023-04-30T01:01:29.181Z,9.711656
2023-04-30T01:02:29.101Z,9.711622
2023-04-30T01:03:29.085Z,9.711652
2023-04-30T01:04:28.980Z,9.711647
2023-04-30T01:05:28.990Z,9.711618
2023-04-30T01:06:29.030Z,9.711649
2023-04-30T01:07:28.973Z,9.711683
2023-04-30T01:08:30.897Z,9.711679
2023-04-30T01:09:28.936Z,9.711673
2023-04-30T01:10:28.948Z,9.711657
2023-04-30T01:11:28.947Z,9.711676
2023-04-30T01:12:28.922Z,9.711720
2023-04-30T01:13:28.931Z,9.711712
2023-04-30T01:14:28.897Z,9.711721
2023-04-30T01:15:28.887Z,9.711677
2023-04-30T01:16:28.982Z,9.711665
2023-04-30T01:17:28.884Z,9.711680
2023-04-30T01:18:28.969Z,9.711631
2023-04-30T01:19:28.872Z,9.711662
2023-04-30T01:20:28.851Z,9.711633
2023-04-30T01:21:28.960Z,9.711655
2023-04-30T01:22:28.839Z,9.711647
2023-04-30T01:23:28.842Z,9.711679
2023-04-30T01:24:28.831Z,9.711693
2023-04-30T01:25:28.828Z,9.711655
2023-04-30T01:26:28.805Z,9.711677
2023-04-30T01:27:28.816Z,9.711671
2023-04-30T01:28:28.858Z,9.711660
2023-04-30T01:29:28.780Z,9.711725
2023-04-30T01:30:28.781Z,9.711810
2023-04-30T01:31:28.809Z,9.712235
2023-04-30T01:32:28.833Z,9.711943
2023-04-30T01:33:28.753Z,9.711807
2023-04-30T01:34:28.760Z,9.711840
2023-04-30T01:35:28.740Z,9.711704
2023-04-30T01:36:28.716Z,9.711613
2023-04-30T01:37:28.724Z,9.711653
2023-04-30T01:38:28.733Z,9.711704
2023-04-30T01:39:28.701Z,9.711588
2023-04-30T01:40:28.707Z,9.711661
2023-04-30T01:41:28.697Z,9.711653
2023-04-30T01:42:28.684Z,9.711681
2023-04-30T01:43:28.675Z,9.711698
2023-04-30T01:44:29.712Z,9.711653
2023-04-30T01:45:28.663Z,9.711784
2023-04-30T01:46:29.460Z,9.711677
2023-04-30T01:47:28.663Z,9.711721
2023-04-30T01:48:28.644Z,9.711638
2023-04-30T01:49:28.639Z,9.711683
2023-04-30T01:50:28.629Z,9.711827
2023-04-30T01:51:28.618Z,9.711885
2023-04-30T01:52:28.643Z,9.711851
2023-04-30T01:53:28.610Z,9.711969
2023-04-30T01:54:28.613Z,9.711846
2023-04-30T01:55:28.585Z,9.712111
2023-04-30T01:56:28.619Z,9.711882
2023-04-30T01:57:28.564Z,9.711890
2023-04-30T01:58:28.578Z,9.711939
2023-04-30T01:59:28.564Z,9.711767
2023-04-30T02:00:28.549Z,9.711779
2023-04-30T02:01:28.729Z,9.711831
2023-04-30T02:02:28.564Z,9.711841
2023-04-30T02:03:28.663Z,9.711794
2023-04-30T02:04:29.411Z,9.711805
2023-04-30T02:05:28.528Z,9.711760
2023-04-30T02:06:28.785Z,9.711725
2023-04-30T02:07:28.497Z,9.711724
2023-04-30T02:08:28.493Z,9.711688
2023-04-30T02:09:28.510Z,9.711665
2023-04-30T02:10:28.510Z,9.711691
2023-04-30T02:11:28.468Z,9.711697
2023-04-30T02:12:28.558Z,9.711650
2023-04-30T02:13:28.477Z,9.711619
2023-04-30T02:14:29.405Z,9.711660
2023-04-30T02:15:28.448Z,9.711668
2023-04-30T02:16:28.516Z,9.711680
2023-04-30T02:17:28.422Z,9.711665
2023-04-30T02:18:28.427Z,9.711658
2023-04-30T02:19:28.416Z,9.711608
2023-04-30T02:20:28.409Z,9.711635
2023-04-30T02:21:28.395Z,9.711619
2023-04-30T02:22:29.889Z,9.711646
2023-04-30T02:23:28.380Z,9.711626
2023-04-30T02:24:28.386Z,9.711619
2023-04-30T02:25:28.367Z,9.711627
2023-04-30T02:26:28.347Z,9.711631
2023-04-30T02:27:28.343Z,9.711630
2023-04-30T02:28:28.341Z,9.711628
2023-04-30T02:29:30.022Z,9.711616
2023-04-30T02:30:28.331Z,9.711616
2023-04-30T02:31:28.359Z,9.711628
2023-04-30T02:32:28.386Z,9.711629
2023-04-30T02:33:28.290Z,9.711630
2023-04-30T02:34:28.302Z,9.711633
2023-04-30T02:35:28.272Z,9.711637
2023-04-30T02:36:28.260Z,9.711671
2023-04-30T02:37:28.269Z,9.711585
2023-04-30T02:38:28.268Z,9.711574
2023-04-30T02:39:28.256Z,9.711568
2023-04-30T02:40:28.240Z,9.711601
2023-04-30T02:41:28.250Z,9.711598
2023-04-30T02:42:28.219Z,9.711615
2023-04-30T02:43:28.216Z,9.711645
2023-04-30T02:44:28.207Z,9.711585
2023-04-30T02:45:28.238Z,9.711452
2023-04-30T02:46:29.008Z,9.711570
2023-04-30T02:47:28.215Z,9.711642
2023-04-30T02:48:28.187Z,9.711654
2023-04-30T02:49:28.169Z,9.711584
2023-04-30T02:50:28.191Z,9.711587
2023-04-30T02:51:28.156Z,9.711666
2023-04-30T02:52:28.172Z,9.711620
2023-04-30T02:53:29.905Z,9.711594
2023-04-30T02:54:28.125Z,9.711649
2023-04-30T02:55:28.135Z,9.711657
2023-04-30T02:56:28.118Z,9.711659
2023-04-30T02:57:28.110Z,9.711777
2023-04-30T02:58:28.175Z,9.711709
2023-04-30T02:59:28.098Z,9.711773
2023-04-30T03:00:28.077Z,9.711740
2023-04-30T03:01:28.108Z,9.711679
2023-04-30T03:02:28.115Z,9.711809
2023-04-30T03:03:28.093Z,9.711637
2023-04-30T03:04:28.055Z,9.711606
2023-04-30T03:05:28.049Z,9.711720
2023-04-30T03:06:28.099Z,9.711598
2023-04-30T03:07:28.016Z,9.711691
2023-04-30T03:08:28.030Z,9.711598
2023-04-30T03:09:28.016Z,9.711690
2023-04-30T03:10:27.998Z,9.711457
2023-04-30T03:11:27.991Z,9.711499
2023-04-30T03:12:28.016Z,9.711494
2023-04-30T03:13:28.492Z,9.711580
2023-04-30T03:14:27.983Z,9.712003
2023-04-30T03:15:30.398Z,9.711965
2023-04-30T03:16:28.070Z,9.711890
2023-04-30T03:17:27.967Z,9.711637
2023-04-30T03:18:27.944Z,9.711640
2023-04-30T03:19:28.970Z,9.711648
2023-04-30T03:20:27.955Z,9.711595
2023-04-30T03:21:27.980Z,9.711638
2023-04-30T03:22:27.911Z,9.711792
2023-04-30T03:23:27.914Z,9.711862
2023-04-30T03:24:27.912Z,9.711716
2023-04-30T03:25:27.877Z,9.711710
2023-04-30T03:26:27.882Z,9.711662
2023-04-30T03:27:27.912Z,9.711824
2023-04-30T03:28:27.937Z,9.711811
2023-04-30T03:29:27.858Z,9.711843
2023-04-30T03:30:27.863Z,9.711871
2023-04-30T03:31:27.872Z,9.711873
2023-04-30T03:32:27.872Z,9.711900
2023-04-30T03:33:27.912Z,9.711734
2023-04-30T03:34:27.844Z,9.711783
2023-04-30T03:35:27.830Z,9.711576
2023-04-30T03:36:27.855Z,9.711607
2023-04-30T03:37:27.812Z,9.711660
2023-04-30T03:38:27.792Z,9.711663
2023-04-30T03:39:27.771Z,9.711667
2023-04-30T03:40:27.778Z,9.711653
2023-04-30T03:41:27.758Z,9.711669
2023-04-30T03:42:27.763Z,9.711643
2023-04-30T03:43:27.745Z,9.711651
2023-04-30T03:44:27.772Z,9.711633
2023-04-30T03:45:27.740Z,9.711759
2023-04-30T03:46:27.793Z,9.711632
2023-04-30T03:47:27.748Z,9.711595
2023-04-30T03:48:27.712Z,9.711635
2023-04-30T03:49:27.714Z,9.711648
2023-04-30T03:50:27.696Z,9.711653
2023-04-30T03:51:29.487Z,9.711648
2023-04-30T03:52:27.710Z,9.711602
2023-04-30T03:53:27.652Z,9.711618
2023-04-30T03:54:27.662Z,9.711647
2023-04-30T03:55:27.648Z,9.711665
2023-04-30T03:56:28.501Z,9.711672
2023-04-30T03:57:27.635Z,9.711646
2023-04-30T03:58:27.626Z,9.711685
2023-04-30T03:59:27.607Z,9.711614
2023-04-30T04:00:27.609Z,9.711671
2023-04-30T04:01:27.607Z,9.711566
2023-04-30T04:02:27.755Z,9.711646
2023-04-30T04:03:27.609Z,9.711625
2023-04-30T04:04:27.607Z,9.711586
2023-04-30T04:05:27.576Z,9.711727
2023-04-30T04:06:27.619Z,9.711713
2023-04-30T04:07:27.548Z,9.711618
2023-04-30T04:08:27.555Z,9.711556
2023-04-30T04:09:27.552Z,9.711542
2023-04-30T04:10:27.560Z,9.711640
2023-04-30T04:11:27.534Z,9.711639
2023-04-30T04:12:27.522Z,9.711634
2023-04-30T04:13:27.504Z,9.711617
2023-04-30T04:14:27.509Z,9.711597
2023-04-30T04:15:27.505Z,9.711724
2023-04-30T04:16:27.607Z,9.711665
2023-04-30T04:17:27.525Z,9.711626
2023-04-30T04:18:27.496Z,9.711684
2023-04-30T04:19:27.463Z,9.711657
2023-04-30T04:20:27.484Z,9.711658
2023-04-30T04:21:27.453Z,9.711657
2023-04-30T04:22:27.441Z,9.711602
2023-04-30T04:23:27.928Z,9.711559
2023-04-30T04:24:27.463Z,9.711471
2023-04-30T04:25:27.462Z,9.711486
2023-04-30T04:26:27.403Z,9.711553
2023-04-30T04:27:27.391Z,9.711530
2023-04-30T04:28:27.382Z,9.711547
2023-04-30T04:29:27.383Z,9.711590
2023-04-30T04:30:27.390Z,9.711669
2023-04-30T04:31:27.409Z,9.711771
2023-04-30T04:32:27.413Z,9.711766
2023-04-30T04:33:27.347Z,9.711864
2023-04-30T04:34:27.351Z,9.711986
2023-04-30T04:35:28.003Z,9.711938
2023-04-30T04:36:27.335Z,9.712074
2023-04-30T04:37:27.318Z,9.711906
2023-04-30T04:38:27.314Z,9.712105
2023-04-30T04:39:27.332Z,9.711950
2023-04-30T04:40:29.221Z,9.711846
2023-04-30T04:41:27.301Z,9.711732
2023-04-30T04:42:27.282Z,9.711733
2023-04-30T04:43:27.282Z,9.711841
2023-04-30T04:44:27.294Z,9.711949
2023-04-30T04:45:27.246Z,9.711975
2023-04-30T04:46:27.304Z,9.711779
2023-04-30T04:47:27.291Z,9.711684
2023-04-30T04:48:27.233Z,9.711514
2023-04-30T04:49:29.082Z,9.711422
2023-04-30T04:50:27.223Z,9.711495
2023-04-30T04:51:27.195Z,9.711476
2023-04-30T04:52:27.209Z,9.711429
2023-04-30T04:53:27.226Z,9.711670
2023-04-30T04:54:27.200Z,9.711706
2023-04-30T04:55:27.174Z,9.711675
2023-04-30T04:56:27.186Z,9.711417
2023-04-30T04:57:27.167Z,9.711527
2023-04-30T04:58:27.157Z,9.711685
2023-04-30T04:59:29.018Z,9.711645
2023-04-30T05:00:27.158Z,9.711584
2023-04-30T05:01:27.190Z,9.711639
2023-04-30T05:02:27.167Z,9.711658
2023-04-30T05:03:27.246Z,9.711700
2023-04-30T05:04:27.111Z,9.711657
2023-04-30T05:05:27.197Z,9.711601
2023-04-30T05:06:27.142Z,9.711604
2023-04-30T05:07:27.085Z,9.711596
2023-04-30T05:08:27.094Z,9.711620
2023-04-30T05:09:27.062Z,9.711637
2023-04-30T05:10:27.059Z,9.711623
2023-04-30T05:11:27.072Z,9.711634
2023-04-30T05:12:27.048Z,9.711645
2023-04-30T05:13:27.051Z,9.711658
2023-04-30T05:14:27.023Z,9.711673
2023-04-30T05:15:28.926Z,9.711650
2023-04-30T05:16:27.048Z,9.711618
2023-04-30T05:17:27.006Z,9.711658
2023-04-30T05:18:26.989Z,9.711658
2023-04-30T05:19:26.983Z,9.711650
2023-04-30T05:20:26.979Z,9.711643
2023-04-30T05:21:27.073Z,9.711663
2023-04-30T05:22:26.959Z,9.711647
2023-04-30T05:23:26.949Z,9.711725
2023-04-30T05:24:28.564Z,9.711740
2023-04-30T05:25:26.955Z,9.711730
2023-04-30T05:26:26.930Z,9.711688
2023-04-30T05:30:35.155Z,9.712476
2023-04-30T05:31:35.167Z,9.712007
2023-04-30T05:32:35.149Z,9.711825
2023-04-30T05:33:35.126Z,9.711685
2023-04-30T05:34:35.114Z,9.711816
2023-04-30T05:35:35.105Z,9.711712
2023-04-30T05:36:35.237Z,9.711665
2023-04-30T05:37:35.106Z,9.711839
2023-04-30T05:38:35.082Z,9.711729
2023-04-30T05:39:35.062Z,9.711806
2023-04-30T05:40:35.073Z,9.711711
2023-04-30T05:41:35.094Z,9.711769
2023-04-30T05:42:35.053Z,9.711707
2023-04-30T05:43:35.052Z,9.711711
2023-04-30T05:44:35.712Z,9.711618
2023-04-30T05:45:35.057Z,9.711543
2023-04-30T05:46:35.061Z,9.711646
2023-04-30T05:47:35.050Z,9.711667
2023-04-30T05:48:35.030Z,9.711575
2023-04-30T05:49:36.215Z,9.711605
2023-04-30T05:50:35.976Z,9.711601
2023-04-30T05:51:34.969Z,9.711545
2023-04-30T05:52:34.990Z,9.711637
2023-04-30T05:53:34.961Z,9.711695
2023-04-30T05:54:34.969Z,9.711609
2023-04-30T05:55:34.955Z,9.711652
2023-04-30T05:56:34.937Z,9.711564
2023-04-30T05:57:34.944Z,9.711699
2023-04-30T05:58:34.939Z,9.711560
2023-04-30T05:59:34.908Z,9.711479
2023-04-30T06:00:34.911Z,9.711567
2023-04-30T06:01:34.928Z,9.711567
2023-04-30T06:02:34.968Z,9.711553
2023-04-30T06:03:34.883Z,9.711648
2023-04-30T06:04:34.894Z,9.711529
2023-04-30T06:05:34.949Z,9.711481
2023-04-30T06:06:34.921Z,9.711291
2023-04-30T06:07:34.854Z,9.711373
2023-04-30T06:08:34.879Z,9.711244
2023-04-30T06:09:34.878Z,9.711638
2023-04-30T06:10:34.833Z,9.711745
2023-04-30T06:11:34.814Z,9.711595
2023-04-30T06:12:34.819Z,9.711437
2023-04-30T06:13:34.825Z,9.711437
2023-04-30T06:14:34.865Z,9.711583
2023-04-30T06:15:34.789Z,9.711737
2023-04-30T06:16:34.816Z,9.711720
2023-04-30T06:17:35.800Z,9.711755
2023-04-30T06:18:34.774Z,9.711714
2023-04-30T06:19:34.763Z,9.711757
2023-04-30T06:20:34.756Z,9.711753
2023-04-30T06:21:34.747Z,9.711717
2023-04-30T06:22:34.768Z,9.711742
2023-04-30T06:23:35.745Z,9.711706
2023-04-30T06:24:34.708Z,9.711716
2023-04-30T06:25:34.755Z,9.711727
2023-04-30T06:26:35.435Z,9.711740
2023-04-30T06:27:34.738Z,9.711710
2023-04-30T06:28:34.727Z,9.711731
2023-04-30T06:29:34.690Z,9.711727
2023-04-30T06:30:36.227Z,9.711747
2023-04-30T06:31:34.687Z,9.711702
2023-04-30T06:32:34.666Z,9.711680
2023-04-30T06:33:34.661Z,9.711676
2023-04-30T06:34:34.642Z,9.711679
2023-04-30T06:35:34.627Z,9.711691
2023-04-30T06:36:34.641Z,9.711762
2023-04-30T06:37:36.154Z,9.711730
2023-04-30T06:38:34.623Z,9.711736
2023-04-30T06:39:34.609Z,9.711679
2023-04-30T06:40:34.589Z,9.711738
2023-04-30T06:41:34.593Z,9.711786
2023-04-30T06:42:34.668Z,9.711753
2023-04-30T06:43:36.251Z,9.711787
2023-04-30T06:44:34.608Z,9.711762
2023-04-30T06:45:34.567Z,9.711746
2023-04-30T06:46:34.647Z,9.711772
2023-04-30T06:47:34.621Z,9.711834
2023-04-30T06:48:34.561Z,9.711560
2023-04-30T06:49:34.538Z,9.711618
2023-04-30T06:50:36.237Z,9.711879
2023-04-30T06:51:34.503Z,9.711871
2023-04-30T06:52:34.487Z,9.711922
2023-04-30T06:53:34.488Z,9.711820
2023-04-30T06:54:34.492Z,9.711886
2023-04-30T06:55:34.463Z,9.711559
2023-04-30T06:56:34.460Z,9.711615
2023-04-30T06:57:34.466Z,9.711436
2023-04-30T06:58:34.447Z,9.711694
2023-04-30T06:59:34.453Z,9.711915
2023-04-30T07:00:34.430Z,9.711725
2023-04-30T07:01:34.489Z,9.711726
2023-04-30T07:02:34.478Z,9.711752
2023-04-30T07:03:34.436Z,9.711546
2023-04-30T07:04:34.402Z,9.711555
2023-04-30T07:05:34.407Z,9.711654
2023-04-30T07:06:34.424Z,9.711619
2023-04-30T07:07:34.568Z,9.711583
2023-04-30T07:08:34.376Z,9.711530
2023-04-30T07:09:34.354Z,9.711584
2023-04-30T07:10:35.169Z,9.711595
2023-04-30T07:11:34.362Z,9.711645
2023-04-30T07:12:34.338Z,9.711555
2023-04-30T07:13:34.333Z,9.711612
2023-04-30T07:14:34.338Z,9.711567
2023-04-30T07:15:34.356Z,9.711584
2023-04-30T07:16:34.368Z,9.711572
2023-04-30T07:17:34.339Z,9.711517
2023-04-30T07:18:34.307Z,9.711598
2023-04-30T07:19:34.302Z,9.711643
2023-04-30T07:20:34.288Z,9.711579
2023-04-30T07:21:34.280Z,9.711592
2023-04-30T07:22:36.235Z,9.711568
2023-04-30T07:23:36.255Z,9.711470
2023-04-30T07:24:34.263Z,9.711407
2023-04-30T07:25:34.227Z,9.711442
2023-04-30T07:26:34.241Z,9.711514
2023-04-30T07:27:34.233Z,9.711488
2023-04-30T07:28:34.285Z,9.711564
2023-04-30T07:29:34.192Z,9.711577
2023-04-30T07:30:34.204Z,9.711425
2023-04-30T07:31:34.285Z,9.711408
2023-04-30T07:32:34.212Z,9.711370
2023-04-30T07:33:34.180Z,9.711447
2023-04-30T07:34:34.179Z,9.711509
2023-04-30T07:35:34.174Z,9.711613
2023-04-30T07:36:34.181Z,9.711529
2023-04-30T07:37:35.832Z,9.711387
2023-04-30T07:38:35.146Z,9.711578
2023-04-30T07:39:34.121Z,9.711521
2023-04-30T07:40:35.945Z,9.711553
2023-04-30T07:41:35.760Z,9.711481
2023-04-30T07:42:34.111Z,9.711461
2023-04-30T07:43:34.137Z,9.711587
2023-04-30T07:44:34.101Z,9.711626
2023-04-30T07:45:34.162Z,9.711873
2023-04-30T07:46:34.251Z,9.711738
2023-04-30T07:47:34.079Z,9.711591
2023-04-30T07:48:34.080Z,9.711579
2023-04-30T07:49:34.068Z,9.711656
2023-04-30T07:50:34.416Z,9.711607
2023-04-30T07:51:34.169Z,9.711649
2023-04-30T07:52:34.048Z,9.711726
2023-04-30T07:53:34.062Z,9.711588
2023-04-30T07:54:34.019Z,9.711725
2023-04-30T07:55:34.003Z,9.711745
2023-04-30T07:56:34.084Z,9.711698
2023-04-30T07:57:34.008Z,9.711666
2023-04-30T07:58:33.983Z,9.711650
2023-04-30T07:59:34.683Z,9.711657
2023-04-30T08:00:33.992Z,9.711705
2023-04-30T08:01:34.141Z,9.711683
2023-04-30T08:02:34.171Z,9.711702
2023-04-30T08:03:34.090Z,9.711687
2023-04-30T08:04:34.033Z,9.711679
2023-04-30T08:05:33.935Z,9.711729
2023-04-30T08:06:34.033Z,9.711677
2023-04-30T08:07:33.976Z,9.711729
2023-04-30T08:08:34.020Z,9.711662
2023-04-30T08:09:38.821Z,9.711721
2023-04-30T08:10:33.894Z,9.711807
2023-04-30T08:11:33.900Z,9.711709
2023-04-30T08:12:34.779Z,9.711692
2023-04-30T08:13:33.877Z,9.711698
2023-04-30T08:14:33.874Z,9.711712
2023-04-30T08:15:33.862Z,9.711740
2023-04-30T08:16:33.968Z,9.711843
2023-04-30T08:17:33.861Z,9.711761
2023-04-30T08:18:33.831Z,9.711679
2023-04-30T08:19:33.859Z,9.711690
2023-04-30T08:20:34.251Z,9.711656
2023-04-30T08:21:33.826Z,9.711702
2023-04-30T08:24:41.192Z,9.711489
2023-04-30T08:25:41.527Z,9.711675
2023-04-30T08:26:41.175Z,9.711669
2023-04-30T08:27:42.022Z,9.711637
2023-04-30T08:28:41.138Z,9.711699
2023-04-30T08:29:41.150Z,9.711715
2023-04-30T08:30:41.151Z,9.711754
2023-04-30T08:31:41.135Z,9.711653
2023-04-30T08:32:41.123Z,9.711670
2023-04-30T08:33:41.107Z,9.711684
2023-04-30T08:34:41.100Z,9.711726
2023-04-30T08:35:41.089Z,9.711754
2023-04-30T08:36:41.081Z,9.711778
2023-04-30T08:37:41.075Z,9.711746
2023-04-30T08:38:43.069Z,9.711770
2023-04-30T08:39:41.056Z,9.711842
2023-04-30T08:40:50.806Z,9.711767
2023-04-30T08:41:43.036Z,9.711636
2023-04-30T08:42:41.049Z,9.711636
2023-04-30T08:43:42.521Z,9.711749
2023-04-30T08:44:41.027Z,9.711589
2023-04-30T08:45:41.057Z,9.711594
2023-04-30T08:46:41.086Z,9.711751
2023-04-30T08:47:41.090Z,9.711812
2023-04-30T08:48:40.992Z,9.711870
2023-04-30T08:49:41.012Z,9.711800
2023-04-30T08:50:40.969Z,9.711640
2023-04-30T08:51:40.973Z,9.711606
2023-04-30T08:52:40.977Z,9.711576
2023-04-30T08:53:40.933Z,9.711700
2023-04-30T08:54:40.944Z,9.711900
2023-04-30T08:55:40.930Z,9.711727
2023-04-30T08:56:42.593Z,9.711848
2023-04-30T08:57:40.937Z,9.711720
2023-04-30T08:58:40.920Z,9.711804
2023-04-30T08:59:40.920Z,9.711810
2023-04-30T09:00:40.908Z,9.711867
2023-04-30T09:01:41.589Z,9.711699
2023-04-30T09:02:40.984Z,9.711742
2023-04-30T09:03:41.085Z,9.711740
2023-04-30T09:04:40.878Z,9.711799
2023-04-30T09:05:40.866Z,9.711884
2023-04-30T09:06:42.615Z,9.711765
2023-04-30T09:07:46.083Z,9.711637
2023-04-30T09:08:41.830Z,9.711735
2023-04-30T09:09:40.853Z,9.711802
2023-04-30T09:10:40.815Z,9.711892
2023-04-30T09:11:40.795Z,9.711835
2023-04-30T09:12:40.797Z,9.711829
2023-04-30T09:13:40.789Z,9.711857
2023-04-30T09:14:40.765Z,9.711681
2023-04-30T09:15:40.799Z,9.711880
2023-04-30T09:16:40.755Z,9.712086
2023-04-30T09:17:40.795Z,9.712211
2023-04-30T09:18:40.734Z,9.712261
2023-04-30T09:19:40.798Z,9.712646
2023-04-30T09:20:40.731Z,9.712575
2023-04-30T09:21:40.726Z,9.712563
2023-04-30T09:22:40.724Z,9.712533
2023-04-30T09:23:40.699Z,9.712524
2023-04-30T09:24:40.849Z,9.712484
2023-04-30T09:25:41.670Z,9.712188
2023-04-30T09:26:40.705Z,9.711980
2023-04-30T09:27:40.676Z,9.711975
2023-04-30T09:28:40.700Z,9.711797
2023-04-30T09:29:41.311Z,9.711892
2023-04-30T09:30:42.479Z,9.711786
2023-04-30T09:31:40.709Z,9.711936
2023-04-30T09:32:40.708Z,9.711815
2023-04-30T09:33:40.703Z,9.711960
2023-04-30T09:34:40.604Z,9.712293
2023-04-30T09:35:40.591Z,9.712311
2023-04-30T09:36:42.559Z,9.712133
2023-04-30T09:37:40.775Z,9.712167
2023-04-30T09:38:40.586Z,9.712029
2023-04-30T09:39:40.562Z,9.712105
2023-04-30T09:40:40.562Z,9.711735
2023-04-30T09:41:40.543Z,9.711820
2023-04-30T09:42:40.559Z,9.711979
2023-04-30T09:43:40.528Z,9.711568
2023-04-30T09:44:40.526Z,9.711441
2023-04-30T09:45:40.546Z,9.711423
2023-04-30T09:46:40.549Z,9.711659
2023-04-30T09:47:40.564Z,9.711654
2023-04-30T09:48:40.561Z,9.711531
2023-04-30T09:49:40.487Z,9.711603
2023-04-30T09:50:42.750Z,9.711639
2023-04-30T09:51:42.616Z,9.711652
2023-04-30T09:52:40.475Z,9.711540
2023-04-30T09:53:40.511Z,9.711678
2023-04-30T09:54:41.103Z,9.711486
2023-04-30T09:55:40.421Z,9.711408
2023-04-30T09:56:40.415Z,9.711533
2023-04-30T09:57:40.424Z,9.711672
2023-04-30T09:58:40.469Z,9.711698
2023-04-30T09:59:40.390Z,9.711665
2023-04-30T10:00:40.409Z,9.711722
2023-04-30T10:01:41.171Z,9.711701
2023-04-30T10:02:41.416Z,9.711647
2023-04-30T10:03:40.416Z,9.711667
2023-04-30T10:04:40.364Z,9.711716
2023-04-30T10:05:40.348Z,9.711658
2023-04-30T10:06:40.342Z,9.711597
2023-04-30T10:07:40.358Z,9.711717
2023-04-30T10:08:40.332Z,9.711625
2023-04-30T10:09:40.310Z,9.711697
2023-04-30T10:10:40.308Z,9.711758
2023-04-30T10:11:40.298Z,9.711745
2023-04-30T10:12:40.305Z,9.711675
2023-04-30T10:13:40.291Z,9.711691
2023-04-30T10:14:40.274Z,9.711681
2023-04-30T10:15:40.269Z,9.711707
2023-04-30T10:16:40.300Z,9.711686
2023-04-30T10:17:40.334Z,9.711660
2023-04-30T10:18:40.243Z,9.711662
2023-04-30T10:19:41.227Z,9.711696
2023-04-30T10:20:40.249Z,9.711669
2023-04-30T10:21:40.218Z,9.711654
2023-04-30T10:22:40.215Z,9.711635
2023-04-30T10:23:40.201Z,9.711666
2023-04-30T10:24:40.183Z,9.711676
2023-04-30T10:25:40.199Z,9.711591
2023-04-30T10:26:40.186Z,9.711687
2023-04-30T10:27:40.176Z,9.711635
2023-04-30T10:28:40.170Z,9.711617
2023-04-30T10:29:40.172Z,9.711620
2023-04-30T10:30:40.160Z,9.711616
2023-04-30T10:31:40.192Z,9.711629
2023-04-30T10:32:40.181Z,9.711616
2023-04-30T10:33:40.166Z,9.711614
2023-04-30T10:34:40.150Z,9.711620
2023-04-30T10:35:40.098Z,9.711642
2023-04-30T10:36:40.108Z,9.711708
2023-04-30T10:37:41.089Z,9.711660
2023-04-30T10:38:40.121Z,9.711624
2023-04-30T10:39:41.569Z,9.711655
2023-04-30T10:40:40.083Z,9.711630
2023-04-30T10:41:40.097Z,9.711535
2023-04-30T10:42:40.078Z,9.711638
2023-04-30T10:43:40.557Z,9.711684
2023-04-30T10:44:40.078Z,9.711637
2023-04-30T10:45:40.154Z,9.711658
2023-04-30T10:46:40.382Z,9.711420
2023-04-30T10:47:40.077Z,9.711416
2023-04-30T10:48:40.011Z,9.711497
2023-04-30T10:49:40.051Z,9.711793
2023-04-30T10:50:41.971Z,9.711601
2023-04-30T10:51:39.972Z,9.711651
2023-04-30T10:52:39.972Z,9.711527
2023-04-30T10:53:39.960Z,9.711756
2023-04-30T10:54:39.961Z,9.711717
2023-04-30T10:55:39.963Z,9.711910
2023-04-30T10:56:39.933Z,9.711637
2023-04-30T10:57:39.990Z,9.711534
2023-04-30T10:58:39.926Z,9.711802
2023-04-30T10:59:39.931Z,9.711722
2023-04-30T11:00:39.913Z,9.712275
2023-04-30T11:19:47.722Z,9.712027
2023-04-30T11:20:48.615Z,9.712027
2023-04-30T11:21:47.691Z,9.712027
2023-04-30T11:22:47.676Z,9.712027
2023-04-30T11:23:47.681Z,9.712027
2023-04-30T11:24:47.662Z,9.711148
2023-04-30T11:25:48.211Z,9.711622
2023-04-30T11:26:47.663Z,9.711848
2023-04-30T11:27:47.635Z,9.711613
2023-04-30T11:28:47.664Z,9.711454
2023-04-30T11:29:47.627Z,9.711449
2023-04-30T11:30:47.639Z,9.711267
2023-04-30T11:31:47.681Z,9.711224
2023-04-30T11:32:47.684Z,9.711224
2023-04-30T11:33:47.605Z,9.711224
2023-04-30T11:34:47.587Z,9.711593
2023-04-30T11:35:47.595Z,9.711684
2023-04-30T11:36:47.571Z,9.711702
2023-04-30T11:37:47.579Z,9.711816
2023-04-30T11:38:47.587Z,9.712719
2023-04-30T11:39:47.554Z,9.712140
2023-04-30T11:40:47.569Z,9.712140
2023-04-30T11:41:47.710Z,9.712496
2023-04-30T11:42:47.553Z,9.712479
2023-04-30T11:43:47.552Z,9.712275
2023-04-30T11:44:47.514Z,9.711919
2023-04-30T11:45:48.132Z,9.711884
2023-04-30T11:46:47.505Z,9.712156
2023-04-30T11:47:47.525Z,9.712271
2023-04-30T11:48:47.500Z,9.712434
2023-04-30T11:49:47.467Z,9.712237
2023-04-30T11:50:47.457Z,9.712074
2023-04-30T11:51:47.460Z,9.712078
2023-04-30T11:52:47.498Z,9.712020
2023-04-30T11:53:47.442Z,9.712099
2023-04-30T11:54:47.438Z,9.711924
2023-04-30T11:55:47.413Z,9.711928
2023-04-30T11:56:47.443Z,9.711928
2023-04-30T11:57:47.408Z,9.711928
2023-04-30T11:58:48.194Z,9.712088
2023-04-30T11:59:47.397Z,9.712098
2023-04-30T12:00:47.396Z,9.711891
2023-04-30T12:01:47.434Z,9.711606
2023-04-30T12:02:47.614Z,9.711642
2023-04-30T12:03:47.408Z,9.711676
2023-04-30T12:04:47.347Z,9.711347
2023-04-30T12:05:47.341Z,9.711081
2023-04-30T12:06:48.142Z,9.711507
2023-04-30T12:07:47.318Z,9.711531
2023-04-30T12:08:47.307Z,9.711411
2023-04-30T12:09:47.309Z,9.711377
2023-04-30T12:10:47.371Z,9.711488
2023-04-30T12:11:47.286Z,9.711575
2023-04-30T12:12:47.288Z,9.711424
2023-04-30T12:13:47.282Z,9.711563